Huvudsida
METAR-TAF:

METAR-TAF

Flygplatser :

OR Tambo internationella flygplats

Johannesburg, Sydafrika

latitud: 26-08S, longitud: 028-14E, höjd: 1694 m

Aktuellt väderrapport

Denna rapport gjordes för 27 minuter sedan, klockan 09:00 UTC
Vind 4 kt från syd/sydväst, varierande mellan ost/sydost och väst
Temperatur 19°C
Fuktighet 30%
Tryck 1029 hPa
Sikt 10 km eller mer
Inga moln under 1 500 m eller inga cumulonimbus

METAR: FAOR 260900Z 20004KT 110V260 CAVOK 19/01 Q1029 NOSIG

Tid: 11:27 (09:27 UTC)

Väderprognos

Denna rapport gjordes för 5 timmar och 27 minuter sedan, klockan 04:00 UTC
Prognos gäller från 26 kl. 06 UTC till 27 kl. 12 UTC
Vind 3 kt varierande vindriktning
Sikt 10 km eller mer
Inga moln under 1 500 m eller inga cumulonimbus
Blir
från 26 kl. 08 UTC till 26 kl. 10 UTC
Vind 8 kt från sydväst
Blir
från 26 kl. 16 UTC till 26 kl. 18 UTC
Vind 3 kt varierande vindriktning

TAF: FAOR 260400Z 2606/2712 VRB03KT CAVOK TX22/2612Z TN09/2704Z BECMG 2608/2610 22008KT BECMG 2616/2618 VRB03KT

Aktuella väderrapporter och prognoser från 4000 flygplatser (METAR- och TAF-rapporter).

De tillgängliga stationerna syns som gula och röda prickar på kartan.

För musen över prickarna för att se namnen på stationerna.

Klicka sedan för att få väderrapporter och prognoser.

För att ändra kartan: Klicka på de gröna knapparna med ett svart kors på för att zooma in; den gröna knappen med ett streck på för att zooma ut; eller på de gröna pilarna för angränsande kartor.


METAR-TAF: